sensor_id;sensor_type;location;lat;lon;timestamp;pressure;altitude;pressure_sealevel;temperature;humidity
51261;BME280;61705;46.228;24.812;2023-02-10T00:01:44;99600.72;;;-14.93;82.73
51261;BME280;61705;46.228;24.812;2023-02-10T00:04:12;99603.25;;;-14.93;82.69
51261;BME280;61705;46.228;24.812;2023-02-10T00:06:40;99602.13;;;-14.97;82.94
51261;BME280;61705;46.228;24.812;2023-02-10T00:09:07;99597.94;;;-14.86;83.03
51261;BME280;61705;46.228;24.812;2023-02-10T00:11:33;99597.44;;;-14.82;82.82
51261;BME280;61705;46.228;24.812;2023-02-10T00:14:19;99596.06;;;-14.68;82.93
51261;BME280;61705;46.228;24.812;2023-02-10T00:16:49;99597.06;;;-14.87;82.21
51261;BME280;61705;46.228;24.812;2023-02-10T00:19:16;99601.72;;;-15.01;82.38
51261;BME280;61705;46.228;24.812;2023-02-10T00:21:43;99607.28;;;-15.06;82.57
51261;BME280;61705;46.228;24.812;2023-02-10T00:24:10;99606.03;;;-15.00;83.04
51261;BME280;61705;46.228;24.812;2023-02-10T00:26:36;99601.59;;;-14.93;82.88
51261;BME280;61705;46.228;24.812;2023-02-10T00:29:03;99600.75;;;-14.83;82.70
51261;BME280;61705;46.228;24.812;2023-02-10T00:31:30;99593.72;;;-15.06;82.04
51261;BME280;61705;46.228;24.812;2023-02-10T00:33:57;99596.66;;;-15.41;81.66
51261;BME280;61705;46.228;24.812;2023-02-10T00:36:24;99591.63;;;-15.60;81.91
51261;BME280;61705;46.228;24.812;2023-02-10T00:38:51;99589.91;;;-15.50;82.33
51261;BME280;61705;46.228;24.812;2023-02-10T00:41:24;99591.78;;;-15.58;82.32
51261;BME280;61705;46.228;24.812;2023-02-10T00:44:01;99585.84;;;-15.48;82.54
51261;BME280;61705;46.228;24.812;2023-02-10T00:46:28;99586.66;;;-15.39;82.87
51261;BME280;61705;46.228;24.812;2023-02-10T00:48:54;99584.75;;;-15.32;82.85
51261;BME280;61705;46.228;24.812;2023-02-10T00:51:21;99585.28;;;-15.25;83.09
51261;BME280;61705;46.228;24.812;2023-02-10T00:53:48;99589.41;;;-15.17;82.87
51261;BME280;61705;46.228;24.812;2023-02-10T00:56:17;99591.25;;;-15.25;82.60
51261;BME280;61705;46.228;24.812;2023-02-10T00:58:44;99587.78;;;-15.36;82.37
51261;BME280;61705;46.228;24.812;2023-02-10T01:01:11;99581.72;;;-15.38;82.42
51261;BME280;61705;46.228;24.812;2023-02-10T01:03:38;99586.16;;;-15.35;82.21
51261;BME280;61705;46.228;24.812;2023-02-10T01:06:06;99577.84;;;-15.24;82.46
51261;BME280;61705;46.228;24.812;2023-02-10T01:08:33;99591.19;;;-15.06;82.70
51261;BME280;61705;46.228;24.812;2023-02-10T01:11:06;99585.47;;;-15.14;82.04
51261;BME280;61705;46.228;24.812;2023-02-10T01:13:34;99580.00;;;-15.08;82.24
51261;BME280;61705;46.228;24.812;2023-02-10T01:16:05;99584.72;;;-15.02;82.15
51261;BME280;61705;46.228;24.812;2023-02-10T01:18:31;99577.63;;;-15.07;81.91
51261;BME280;61705;46.228;24.812;2023-02-10T01:20:58;99571.91;;;-15.04;81.93
51261;BME280;61705;46.228;24.812;2023-02-10T01:23:25;99573.53;;;-15.15;81.71
51261;BME280;61705;46.228;24.812;2023-02-10T01:25:51;99576.06;;;-15.15;81.64
51261;BME280;61705;46.228;24.812;2023-02-10T01:28:18;99567.31;;;-15.18;81.69
51261;BME280;61705;46.228;24.812;2023-02-10T01:30:45;99569.59;;;-15.21;81.88
51261;BME280;61705;46.228;24.812;2023-02-10T01:33:11;99568.16;;;-15.28;81.91
51261;BME280;61705;46.228;24.812;2023-02-10T01:35:39;99565.78;;;-15.26;81.68
51261;BME280;61705;46.228;24.812;2023-02-10T01:38:06;99563.59;;;-15.32;81.64
51261;BME280;61705;46.228;24.812;2023-02-10T01:40:33;99563.59;;;-15.32;81.80
51261;BME280;61705;46.228;24.812;2023-02-10T01:43:00;99561.34;;;-15.29;82.02
51261;BME280;61705;46.228;24.812;2023-02-10T01:45:34;99561.47;;;-15.27;82.22
51261;BME280;61705;46.228;24.812;2023-02-10T01:48:02;99558.28;;;-15.35;82.32
51261;BME280;61705;46.228;24.812;2023-02-10T01:50:54;99554.31;;;-15.42;82.41
51261;BME280;61705;46.228;24.812;2023-02-10T01:53:22;99553.81;;;-15.48;82.35
51261;BME280;61705;46.228;24.812;2023-02-10T01:55:53;99553.81;;;-15.48;82.55
51261;BME280;61705;46.228;24.812;2023-02-10T01:58:24;99552.91;;;-15.48;82.41
51261;BME280;61705;46.228;24.812;2023-02-10T02:00:52;99548.50;;;-15.51;82.38
51261;BME280;61705;46.228;24.812;2023-02-10T02:03:18;99555.34;;;-15.40;82.79
51261;BME280;61705;46.228;24.812;2023-02-10T02:05:45;99553.94;;;-15.46;82.50
51261;BME280;61705;46.228;24.812;2023-02-10T02:08:17;99555.59;;;-15.47;82.36
51261;BME280;61705;46.228;24.812;2023-02-10T02:19:01;99544.88;;;-15.63;82.25
51261;BME280;61705;46.228;24.812;2023-02-10T02:24:21;99542.91;;;-15.47;82.32
51261;BME280;61705;46.228;24.812;2023-02-10T02:26:58;99539.34;;;-15.49;82.20
51261;BME280;61705;46.228;24.812;2023-02-10T02:30:02;99534.66;;;-15.55;81.95
51261;BME280;61705;46.228;24.812;2023-02-10T02:36:00;99545.06;;;-15.91;81.62
51261;BME280;61705;46.228;24.812;2023-02-10T02:38:28;99538.41;;;-16.28;81.19
51261;BME280;61705;46.228;24.812;2023-02-10T02:40:55;99539.44;;;-16.26;81.38
51261;BME280;61705;46.228;24.812;2023-02-10T02:43:22;99536.41;;;-16.41;81.68
51261;BME280;61705;46.228;24.812;2023-02-10T02:46:04;99533.84;;;-16.32;81.94
51261;BME280;61705;46.228;24.812;2023-02-10T02:49:01;99536.47;;;-16.12;81.68
51261;BME280;61705;46.228;24.812;2023-02-10T02:55:52;99542.03;;;-16.16;82.04
51261;BME280;61705;46.228;24.812;2023-02-10T03:00:43;99545.75;;;-16.50;81.52
51261;BME280;61705;46.228;24.812;2023-02-10T03:03:11;99540.81;;;-16.67;81.43
51261;BME280;61705;46.228;24.812;2023-02-10T03:05:38;99533.75;;;-16.61;81.75
51261;BME280;61705;46.228;24.812;2023-02-10T03:08:05;99538.06;;;-16.60;81.67
51261;BME280;61705;46.228;24.812;2023-02-10T03:10:32;99545.78;;;-16.59;81.55
51261;BME280;61705;46.228;24.812;2023-02-10T03:12:58;99541.69;;;-16.67;81.80
51261;BME280;61705;46.228;24.812;2023-02-10T03:15:25;99542.19;;;-16.71;81.73
51261;BME280;61705;46.228;24.812;2023-02-10T03:17:52;99539.28;;;-16.65;81.71
51261;BME280;61705;46.228;24.812;2023-02-10T03:20:18;99541.97;;;-16.83;81.18
51261;BME280;61705;46.228;24.812;2023-02-10T03:22:45;99546.47;;;-16.89;81.51
51261;BME280;61705;46.228;24.812;2023-02-10T03:25:12;99548.72;;;-16.92;81.51
51261;BME280;61705;46.228;24.812;2023-02-10T03:27:38;99559.00;;;-16.99;81.46
51261;BME280;61705;46.228;24.812;2023-02-10T03:30:05;99556.22;;;-17.02;81.62
51261;BME280;61705;46.228;24.812;2023-02-10T03:32:31;99555.59;;;-17.00;81.74
51261;BME280;61705;46.228;24.812;2023-02-10T03:34:58;99564.88;;;-17.09;81.73
51261;BME280;61705;46.228;24.812;2023-02-10T03:37:25;99559.28;;;-17.24;81.64
51261;BME280;61705;46.228;24.812;2023-02-10T03:39:51;99560.63;;;-17.27;81.67
51261;BME280;61705;46.228;24.812;2023-02-10T03:42:18;99564.34;;;-17.24;81.92
51261;BME280;61705;46.228;24.812;2023-02-10T03:44:44;99570.84;;;-17.17;81.98
51261;BME280;61705;46.228;24.812;2023-02-10T03:47:11;99571.13;;;-17.14;82.49
51261;BME280;61705;46.228;24.812;2023-02-10T03:49:37;99573.06;;;-17.11;82.06
51261;BME280;61705;46.228;24.812;2023-02-10T03:52:04;99574.81;;;-17.02;82.19
51261;BME280;61705;46.228;24.812;2023-02-10T03:54:30;99582.50;;;-17.00;82.27
51261;BME280;61705;46.228;24.812;2023-02-10T03:56:57;99576.84;;;-16.98;82.13
51261;BME280;61705;46.228;24.812;2023-02-10T03:59:24;99577.34;;;-17.02;81.68
51261;BME280;61705;46.228;24.812;2023-02-10T04:01:51;99569.00;;;-17.01;81.70
51261;BME280;61705;46.228;24.812;2023-02-10T04:04:18;99572.47;;;-17.09;81.62
51261;BME280;61705;46.228;24.812;2023-02-10T04:06:45;99573.91;;;-17.02;81.73
51261;BME280;61705;46.228;24.812;2023-02-10T04:09:11;99573.16;;;-17.01;81.67
51261;BME280;61705;46.228;24.812;2023-02-10T04:11:38;99573.16;;;-17.01;81.63
51261;BME280;61705;46.228;24.812;2023-02-10T04:14:04;99573.84;;;-16.93;81.88
51261;BME280;61705;46.228;24.812;2023-02-10T04:16:31;99570.06;;;-16.80;81.87
51261;BME280;61705;46.228;24.812;2023-02-10T04:18:58;99570.88;;;-16.70;81.78
51261;BME280;61705;46.228;24.812;2023-02-10T04:21:24;99564.00;;;-16.72;82.06
51261;BME280;61705;46.228;24.812;2023-02-10T04:23:51;99573.91;;;-16.75;82.19
51261;BME280;61705;46.228;24.812;2023-02-10T04:26:18;99570.22;;;-16.78;82.18
51261;BME280;61705;46.228;24.812;2023-02-10T04:28:45;99575.19;;;-16.88;82.10
51261;BME280;61705;46.228;24.812;2023-02-10T04:31:11;99580.59;;;-16.75;82.18
51261;BME280;61705;46.228;24.812;2023-02-10T04:33:38;99576.00;;;-16.79;81.95
51261;BME280;61705;46.228;24.812;2023-02-10T04:36:04;99568.47;;;-16.69;81.92
51261;BME280;61705;46.228;24.812;2023-02-10T04:38:31;99571.69;;;-16.80;81.50
51261;BME280;61705;46.228;24.812;2023-02-10T04:40:58;99574.44;;;-16.87;81.58
51261;BME280;61705;46.228;24.812;2023-02-10T04:43:24;99584.53;;;-16.87;81.62
51261;BME280;61705;46.228;24.812;2023-02-10T04:45:51;99580.16;;;-16.80;81.63
51261;BME280;61705;46.228;24.812;2023-02-10T04:48:17;99586.47;;;-16.85;81.73
51261;BME280;61705;46.228;24.812;2023-02-10T04:50:46;99589.88;;;-16.84;81.58
51261;BME280;61705;46.228;24.812;2023-02-10T04:53:12;99588.03;;;-16.77;81.95
51261;BME280;61705;46.228;24.812;2023-02-10T04:55:39;99587.19;;;-16.86;81.31
51261;BME280;61705;46.228;24.812;2023-02-10T04:58:06;99588.16;;;-17.03;81.37
51261;BME280;61705;46.228;24.812;2023-02-10T05:00:33;99595.59;;;-17.32;80.84
51261;BME280;61705;46.228;24.812;2023-02-10T05:02:59;99595.13;;;-17.28;81.39
51261;BME280;61705;46.228;24.812;2023-02-10T05:05:26;99594.53;;;-17.25;81.71
51261;BME280;61705;46.228;24.812;2023-02-10T05:07:53;99599.59;;;-17.34;81.36
51261;BME280;61705;46.228;24.812;2023-02-10T05:10:20;99597.94;;;-17.25;81.56
51261;BME280;61705;46.228;24.812;2023-02-10T05:12:50;99604.19;;;-17.30;81.29
51261;BME280;61705;46.228;24.812;2023-02-10T05:15:16;99602.00;;;-17.44;81.29
51261;BME280;61705;46.228;24.812;2023-02-10T05:17:43;99598.00;;;-17.51;81.03
51261;BME280;61705;46.228;24.812;2023-02-10T05:20:09;99602.00;;;-17.44;81.17
51261;BME280;61705;46.228;24.812;2023-02-10T05:22:36;99602.69;;;-17.73;80.83
51261;BME280;61705;46.228;24.812;2023-02-10T05:25:04;99600.56;;;-17.59;81.28
51261;BME280;61705;46.228;24.812;2023-02-10T05:27:31;99606.16;;;-17.45;81.35
51261;BME280;61705;46.228;24.812;2023-02-10T05:29:57;99610.28;;;-17.36;81.03
51261;BME280;61705;46.228;24.812;2023-02-10T05:32:24;99607.22;;;-17.51;80.73
51261;BME280;61705;46.228;24.812;2023-02-10T05:34:51;99603.34;;;-17.48;80.84
51261;BME280;61705;46.228;24.812;2023-02-10T05:37:20;99611.53;;;-17.50;80.52
51261;BME280;61705;46.228;24.812;2023-02-10T05:39:47;99608.44;;;-17.56;80.68
51261;BME280;61705;46.228;24.812;2023-02-10T05:42:13;99612.44;;;-17.50;80.38
51261;BME280;61705;46.228;24.812;2023-02-10T05:44:40;99613.44;;;-17.48;80.68
51261;BME280;61705;46.228;24.812;2023-02-10T05:47:09;99609.28;;;-17.47;80.75
51261;BME280;61705;46.228;24.812;2023-02-10T05:49:36;99621.09;;;-17.20;80.88
51261;BME280;61705;46.228;24.812;2023-02-10T05:52:02;99626.31;;;-17.18;80.76
51261;BME280;61705;46.228;24.812;2023-02-10T05:54:29;99625.84;;;-17.14;80.46
51261;BME280;61705;46.228;24.812;2023-02-10T05:56:56;99627.59;;;-17.13;80.71
51261;BME280;61705;46.228;24.812;2023-02-10T05:59:22;99630.78;;;-16.88;80.61
51261;BME280;61705;46.228;24.812;2023-02-10T06:01:49;99625.25;;;-16.65;80.61
51261;BME280;61705;46.228;24.812;2023-02-10T06:04:16;99627.84;;;-16.46;80.06
51261;BME280;61705;46.228;24.812;2023-02-10T06:06:42;99623.50;;;-16.66;79.59
51261;BME280;61705;46.228;24.812;2023-02-10T06:09:09;99623.88;;;-16.53;79.95
51261;BME280;61705;46.228;24.812;2023-02-10T06:11:36;99628.84;;;-16.44;79.57
51261;BME280;61705;46.228;24.812;2023-02-10T06:14:02;99631.16;;;-16.56;79.17
51261;BME280;61705;46.228;24.812;2023-02-10T06:16:29;99627.56;;;-16.50;79.61
51261;BME280;61705;46.228;24.812;2023-02-10T06:18:56;99628.53;;;-16.39;79.30
51261;BME280;61705;46.228;24.812;2023-02-10T06:21:22;99632.53;;;-16.41;79.19
51261;BME280;61705;46.228;24.812;2023-02-10T06:23:49;99640.91;;;-16.42;79.35
51261;BME280;61705;46.228;24.812;2023-02-10T06:26:16;99639.00;;;-16.07;79.37
51261;BME280;61705;46.228;24.812;2023-02-10T06:28:43;99638.81;;;-16.18;78.67
51261;BME280;61705;46.228;24.812;2023-02-10T06:31:09;99646.25;;;-16.39;78.44
51261;BME280;61705;46.228;24.812;2023-02-10T06:33:36;99646.84;;;-16.41;78.36
51261;BME280;61705;46.228;24.812;2023-02-10T06:36:03;99652.78;;;-16.41;78.46
51261;BME280;61705;46.228;24.812;2023-02-10T06:38:34;99651.28;;;-16.39;78.16
51261;BME280;61705;46.228;24.812;2023-02-10T06:41:02;99650.88;;;-16.43;78.14
51261;BME280;61705;46.228;24.812;2023-02-10T06:43:28;99649.81;;;-16.37;78.12
51261;BME280;61705;46.228;24.812;2023-02-10T06:45:55;99648.00;;;-16.38;77.86
51261;BME280;61705;46.228;24.812;2023-02-10T06:48:22;99635.72;;;-16.25;77.98
51261;BME280;61705;46.228;24.812;2023-02-10T06:50:51;99646.03;;;-16.32;77.78
51261;BME280;61705;46.228;24.812;2023-02-10T06:53:19;99642.59;;;-16.23;77.90
51261;BME280;61705;46.228;24.812;2023-02-10T06:55:46;99640.38;;;-16.10;77.89
51261;BME280;61705;46.228;24.812;2023-02-10T06:58:14;99638.13;;;-15.88;78.53
51261;BME280;61705;46.228;24.812;2023-02-10T07:00:44;99649.13;;;-15.88;78.05
51261;BME280;61705;46.228;24.812;2023-02-10T07:03:13;99645.25;;;-15.84;78.04
51261;BME280;61705;46.228;24.812;2023-02-10T07:05:40;99641.75;;;-15.95;77.60
51261;BME280;61705;46.228;24.812;2023-02-10T07:08:09;99641.34;;;-16.18;77.79
51261;BME280;61705;46.228;24.812;2023-02-10T07:10:36;99646.06;;;-16.13;77.65
51261;BME280;61705;46.228;24.812;2023-02-10T07:13:03;99647.00;;;-16.21;77.42
51261;BME280;61705;46.228;24.812;2023-02-10T07:15:30;99648.69;;;-16.03;77.84
51261;BME280;61705;46.228;24.812;2023-02-10T07:17:57;99642.09;;;-16.01;77.99
51261;BME280;61705;46.228;24.812;2023-02-10T07:20:24;99644.06;;;-15.88;77.99
51261;BME280;61705;46.228;24.812;2023-02-10T07:22:51;99638.75;;;-15.91;77.77
51261;BME280;61705;46.228;24.812;2023-02-10T07:25:18;99630.78;;;-15.66;77.98
51261;BME280;61705;46.228;24.812;2023-02-10T07:27:45;99632.16;;;-15.60;77.63
51261;BME280;61705;46.228;24.812;2023-02-10T07:30:13;99634.03;;;-15.38;77.63
51261;BME280;61705;46.228;24.812;2023-02-10T07:32:40;99625.22;;;-15.52;76.72
51261;BME280;61705;46.228;24.812;2023-02-10T07:35:08;99628.97;;;-15.38;77.17
51261;BME280;61705;46.228;24.812;2023-02-10T07:37:36;99633.56;;;-15.34;76.49
51261;BME280;61705;46.228;24.812;2023-02-10T07:40:03;99632.69;;;-15.35;77.04
51261;BME280;61705;46.228;24.812;2023-02-10T07:42:30;99646.13;;;-15.25;76.87
51261;BME280;61705;46.228;24.812;2023-02-10T07:44:58;99644.63;;;-15.23;76.53
51261;BME280;61705;46.228;24.812;2023-02-10T07:47:25;99637.97;;;-15.02;76.65
51261;BME280;61705;46.228;24.812;2023-02-10T07:49:52;99636.22;;;-14.93;76.11
51261;BME280;61705;46.228;24.812;2023-02-10T07:52:22;99638.13;;;-14.81;76.67
51261;BME280;61705;46.228;24.812;2023-02-10T07:54:49;99641.69;;;-14.78;76.12
51261;BME280;61705;46.228;24.812;2023-02-10T07:57:16;99635.25;;;-14.65;76.31
51261;BME280;61705;46.228;24.812;2023-02-10T07:59:43;99627.25;;;-14.79;76.65
51261;BME280;61705;46.228;24.812;2023-02-10T08:02:10;99631.19;;;-14.83;76.96
51261;BME280;61705;46.228;24.812;2023-02-10T08:04:37;99626.50;;;-14.68;76.65
51261;BME280;61705;46.228;24.812;2023-02-10T08:07:04;99624.72;;;-14.39;76.84
51261;BME280;61705;46.228;24.812;2023-02-10T08:09:31;99616.59;;;-14.45;76.29
51261;BME280;61705;46.228;24.812;2023-02-10T08:11:57;99628.25;;;-14.37;76.35
51261;BME280;61705;46.228;24.812;2023-02-10T08:14:24;99621.41;;;-14.27;76.28
51261;BME280;61705;46.228;24.812;2023-02-10T08:16:51;99614.03;;;-14.04;76.67
51261;BME280;61705;46.228;24.812;2023-02-10T08:19:17;99619.84;;;-14.05;76.44
51261;BME280;61705;46.228;24.812;2023-02-10T08:21:45;99611.59;;;-13.92;76.21
51261;BME280;61705;46.228;24.812;2023-02-10T08:24:13;99608.91;;;-13.83;76.04
51261;BME280;61705;46.228;24.812;2023-02-10T08:26:40;99604.94;;;-13.70;75.58
51261;BME280;61705;46.228;24.812;2023-02-10T08:29:08;99611.47;;;-13.51;75.16
51261;BME280;61705;46.228;24.812;2023-02-10T08:31:35;99608.22;;;-13.28;75.22
51261;BME280;61705;46.228;24.812;2023-02-10T08:34:02;99606.22;;;-13.32;74.91
51261;BME280;61705;46.228;24.812;2023-02-10T08:36:28;99601.03;;;-13.00;75.59
51261;BME280;61705;46.228;24.812;2023-02-10T08:38:55;99607.78;;;-13.01;74.61
51261;BME280;61705;46.228;24.812;2023-02-10T08:41:22;99598.97;;;-12.72;75.26
51261;BME280;61705;46.228;24.812;2023-02-10T08:43:49;99593.94;;;-12.82;73.89
51261;BME280;61705;46.228;24.812;2023-02-10T08:46:16;99597.81;;;-12.87;73.99
51261;BME280;61705;46.228;24.812;2023-02-10T08:48:42;99593.22;;;-12.70;74.05
51261;BME280;61705;46.228;24.812;2023-02-10T08:51:12;99597.69;;;-12.55;74.34
51261;BME280;61705;46.228;24.812;2023-02-10T08:53:39;99585.75;;;-12.45;73.94
51261;BME280;61705;46.228;24.812;2023-02-10T08:56:10;99590.47;;;-12.27;73.82
51261;BME280;61705;46.228;24.812;2023-02-10T08:58:41;99588.69;;;-12.28;73.31
51261;BME280;61705;46.228;24.812;2023-02-10T09:01:13;99592.25;;;-12.26;73.81
51261;BME280;61705;46.228;24.812;2023-02-10T09:03:41;99595.78;;;-12.24;73.76
51261;BME280;61705;46.228;24.812;2023-02-10T09:06:18;99593.78;;;-12.28;74.09
51261;BME280;61705;46.228;24.812;2023-02-10T09:08:46;99600.47;;;-12.19;74.36
51261;BME280;61705;46.228;24.812;2023-02-10T09:11:14;99600.16;;;-12.00;74.38
51261;BME280;61705;46.228;24.812;2023-02-10T09:13:41;99603.56;;;-12.11;73.60
51261;BME280;61705;46.228;24.812;2023-02-10T09:16:08;99602.25;;;-12.06;73.41
51261;BME280;61705;46.228;24.812;2023-02-10T09:18:38;99611.47;;;-11.84;73.32
51261;BME280;61705;46.228;24.812;2023-02-10T09:21:05;99613.44;;;-11.80;73.10
51261;BME280;61705;46.228;24.812;2023-02-10T09:23:33;99612.53;;;-11.69;72.80
51261;BME280;61705;46.228;24.812;2023-02-10T09:26:00;99620.56;;;-11.64;73.20
51261;BME280;61705;46.228;24.812;2023-02-10T09:28:27;99613.66;;;-11.30;73.15
51261;BME280;61705;46.228;24.812;2023-02-10T09:30:54;99616.75;;;-11.23;72.72
51261;BME280;61705;46.228;24.812;2023-02-10T09:33:21;99607.56;;;-11.20;72.62
51261;BME280;61705;46.228;24.812;2023-02-10T09:35:48;99605.09;;;-11.19;72.36
51261;BME280;61705;46.228;24.812;2023-02-10T09:38:15;99600.22;;;-11.16;72.72
51261;BME280;61705;46.228;24.812;2023-02-10T09:41:25;99590.38;;;-10.86;72.25
51261;BME280;61705;46.228;24.812;2023-02-10T09:54:47;99563.66;;;-10.02;71.73
51261;BME280;61705;46.228;24.812;2023-02-10T09:57:16;99558.56;;;-10.02;71.43
51261;BME280;61705;46.228;24.812;2023-02-10T09:59:46;99554.34;;;-10.01;71.33
51261;BME280;61705;46.228;24.812;2023-02-10T10:02:21;99541.56;;;-10.01;71.50
51261;BME280;61705;46.228;24.812;2023-02-10T10:04:53;99549.75;;;-9.80;71.56
51261;BME280;61705;46.228;24.812;2023-02-10T10:07:26;99544.16;;;-9.88;71.89
51261;BME280;61705;46.228;24.812;2023-02-10T10:10:28;99540.09;;;-9.97;71.44
51261;BME280;61705;46.228;24.812;2023-02-10T10:12:58;99530.44;;;-9.75;71.90
51261;BME280;61705;46.228;24.812;2023-02-10T10:15:31;99532.31;;;-9.59;71.65
51261;BME280;61705;46.228;24.812;2023-02-10T10:18:03;99523.38;;;-9.52;71.26
51261;BME280;61705;46.228;24.812;2023-02-10T10:23:17;99515.44;;;-9.29;71.54
51261;BME280;61705;46.228;24.812;2023-02-10T10:29:32;99498.75;;;-8.81;71.23
51261;BME280;61705;46.228;24.812;2023-02-10T10:32:17;99497.69;;;-8.70;71.18
51261;BME280;61705;46.228;24.812;2023-02-10T10:34:52;99484.28;;;-8.66;70.64
51261;BME280;61705;46.228;24.812;2023-02-10T10:37:24;99494.63;;;-8.49;70.80
51261;BME280;61705;46.228;24.812;2023-02-10T10:39:55;99485.34;;;-8.32;69.83
51261;BME280;61705;46.228;24.812;2023-02-10T10:42:41;99490.72;;;-8.28;69.96
51261;BME280;61705;46.228;24.812;2023-02-10T10:45:21;99488.34;;;-8.10;69.59
51261;BME280;61705;46.228;24.812;2023-02-10T10:48:00;99497.16;;;-7.90;70.18
51261;BME280;61705;46.228;24.812;2023-02-10T10:50:27;99493.97;;;-7.86;69.98
51261;BME280;61705;46.228;24.812;2023-02-10T10:52:56;99495.75;;;-7.85;70.30
51261;BME280;61705;46.228;24.812;2023-02-10T10:55:39;99481.28;;;-7.68;70.06
51261;BME280;61705;46.228;24.812;2023-02-10T11:01:17;99473.69;;;-7.50;67.11
51261;BME280;61705;46.228;24.812;2023-02-10T11:03:44;99477.50;;;-7.44;67.74
51261;BME280;61705;46.228;24.812;2023-02-10T11:06:14;99475.44;;;-7.34;68.80
51261;BME280;61705;46.228;24.812;2023-02-10T11:08:45;99482.16;;;-7.36;68.51
51261;BME280;61705;46.228;24.812;2023-02-10T11:11:19;99462.53;;;-7.20;68.92
51261;BME280;61705;46.228;24.812;2023-02-10T11:14:12;99463.19;;;-7.07;69.07
51261;BME280;61705;46.228;24.812;2023-02-10T11:16:43;99462.38;;;-7.06;68.04
51261;BME280;61705;46.228;24.812;2023-02-10T11:19:21;99461.88;;;-6.99;68.73
51261;BME280;61705;46.228;24.812;2023-02-10T11:21:49;99465.00;;;-6.88;68.62
51261;BME280;61705;46.228;24.812;2023-02-10T11:27:06;99447.34;;;-6.66;68.64
51261;BME280;61705;46.228;24.812;2023-02-10T11:29:49;99441.25;;;-6.50;68.31
51261;BME280;61705;46.228;24.812;2023-02-10T11:32:28;99447.72;;;-6.58;67.38
51261;BME280;61705;46.228;24.812;2023-02-10T11:34:57;99436.22;;;-6.49;67.12
51261;BME280;61705;46.228;24.812;2023-02-10T11:37:34;99438.66;;;-6.34;68.43
51261;BME280;61705;46.228;24.812;2023-02-10T11:40:05;99429.97;;;-6.36;68.25
51261;BME280;61705;46.228;24.812;2023-02-10T11:42:48;99420.34;;;-6.40;68.52
51261;BME280;61705;46.228;24.812;2023-02-10T11:45:20;99424.81;;;-6.36;68.63
51261;BME280;61705;46.228;24.812;2023-02-10T11:47:47;99425.13;;;-6.30;66.99
51261;BME280;61705;46.228;24.812;2023-02-10T11:50:22;99414.16;;;-6.26;67.62
51261;BME280;61705;46.228;24.812;2023-02-10T11:52:49;99405.88;;;-6.20;67.21
51261;BME280;61705;46.228;24.812;2023-02-10T11:55:16;99414.06;;;-6.11;67.06
51261;BME280;61705;46.228;24.812;2023-02-10T12:01:09;99416.78;;;-6.08;68.80
51261;BME280;61705;46.228;24.812;2023-02-10T12:09:30;99415.88;;;-5.71;67.76
51261;BME280;61705;46.228;24.812;2023-02-10T12:17:29;99398.06;;;-5.49;67.94
51261;BME280;61705;46.228;24.812;2023-02-10T12:25:26;99404.72;;;-5.15;67.12
51261;BME280;61705;46.228;24.812;2023-02-10T12:28:29;99388.03;;;-5.04;67.37
51261;BME280;61705;46.228;24.812;2023-02-10T12:36:42;99372.88;;;-4.77;67.18
51261;BME280;61705;46.228;24.812;2023-02-10T12:39:28;99370.97;;;-4.61;65.89
51261;BME280;61705;46.228;24.812;2023-02-10T12:47:19;99374.03;;;-4.49;65.62
51261;BME280;61705;46.228;24.812;2023-02-10T12:52:47;99370.25;;;-4.36;64.53
51261;BME280;61705;46.228;24.812;2023-02-10T12:55:23;99371.31;;;-4.31;65.24
51261;BME280;61705;46.228;24.812;2023-02-10T12:58:01;99372.41;;;-4.26;66.01
51261;BME280;61705;46.228;24.812;2023-02-10T13:00:38;99372.97;;;-4.33;66.03
51261;BME280;61705;46.228;24.812;2023-02-10T13:03:15;99370.75;;;-4.45;65.98
51261;BME280;61705;46.228;24.812;2023-02-10T13:06:20;99373.66;;;-4.37;65.65
51261;BME280;61705;46.228;24.812;2023-02-10T13:09:14;99367.38;;;-4.44;65.02
51261;BME280;61705;46.228;24.812;2023-02-10T13:14:25;99360.31;;;-4.27;64.79
51261;BME280;61705;46.228;24.812;2023-02-10T13:16:55;99363.38;;;-4.15;64.42
51261;BME280;61705;46.228;24.812;2023-02-10T13:25:17;99357.34;;;-4.15;63.63
51261;BME280;61705;46.228;24.812;2023-02-10T13:27:50;99364.03;;;-3.98;63.41
51261;BME280;61705;46.228;24.812;2023-02-10T13:33:14;99366.22;;;-4.09;63.18
51261;BME280;61705;46.228;24.812;2023-02-10T13:35:45;99364.63;;;-4.05;63.04
51261;BME280;61705;46.228;24.812;2023-02-10T13:38:18;99361.91;;;-4.08;62.59
51261;BME280;61705;46.228;24.812;2023-02-10T13:43:23;99362.34;;;-3.75;62.76
51261;BME280;61705;46.228;24.812;2023-02-10T13:45:53;99361.59;;;-3.95;62.35
51261;BME280;61705;46.228;24.812;2023-02-10T13:48:23;99362.47;;;-3.94;62.07
51261;BME280;61705;46.228;24.812;2023-02-10T13:51:00;99362.28;;;-3.76;62.01
51261;BME280;61705;46.228;24.812;2023-02-10T13:56:15;99360.13;;;-3.88;62.40
51261;BME280;61705;46.228;24.812;2023-02-10T13:59:05;99362.53;;;-3.93;62.52
51261;BME280;61705;46.228;24.812;2023-02-10T14:04:26;99367.91;;;-3.87;62.04
51261;BME280;61705;46.228;24.812;2023-02-10T14:06:54;99366.56;;;-3.77;61.84
51261;BME280;61705;46.228;24.812;2023-02-10T14:11:57;99367.41;;;-3.78;61.60
51261;BME280;61705;46.228;24.812;2023-02-10T14:14:38;99367.00;;;-3.89;61.47
51261;BME280;61705;46.228;24.812;2023-02-10T14:19:43;99365.88;;;-3.95;61.38
51261;BME280;61705;46.228;24.812;2023-02-10T14:22:39;99360.94;;;-3.89;61.33
51261;BME280;61705;46.228;24.812;2023-02-10T14:25:16;99355.84;;;-3.88;61.71
51261;BME280;61705;46.228;24.812;2023-02-10T14:27:49;99356.59;;;-3.90;62.25
51261;BME280;61705;46.228;24.812;2023-02-10T14:32:51;99366.13;;;-3.89;62.65
51261;BME280;61705;46.228;24.812;2023-02-10T14:35:24;99377.06;;;-3.95;63.06
51261;BME280;61705;46.228;24.812;2023-02-10T14:37:57;99367.13;;;-3.86;63.13
51261;BME280;61705;46.228;24.812;2023-02-10T14:40:26;99364.19;;;-3.72;63.31
51261;BME280;61705;46.228;24.812;2023-02-10T14:42:54;99364.28;;;-3.47;62.98